Terminal Aerodrome Forecast
Issued by NWS

Current Version | Previous Version | Graphics & Text | Print | Product List | Glossary On
Versions: 1 2 3 4 5 6 7 8 9 10 11 12 13 14 15 16 17 18 19 20 21
000
FTUS41 KRLX 231000 AAB
TAFCKB
TAF AMD
KCKB 231001Z 2310/2406 VRB03KT 6SM HZ SCT050
      TEMPO 2311/2313 5SM -SHRA BKN045
     FM231500 23007KT P6SM BKN040
     FM231700 24007KT P6SM VCTS BKN040CB
     FM232000 27007KT 5SM TSRA BKN030CB
     FM232200 28006KT 3SM TSRA BR BKN024CB
     FM240100 32004KT 4SM -SHRA BR BKN020
     FM240400 31003KT 4SM BR BKN018=

USA.gov is the U.S. government's official web portal to all federal, state and local government web resources and services.